If you wish to contribute or participate in the discussions about articles you are invited to join SKYbrary as a registered user

 Actions

Coimbatore International Airport

From SKYbrary Wiki

VOCB
Airport
ICAO: VOCB – IATA: CJB
Summary
Name Coimbatore International Airport
Region Asia and Pacific
Territory India IN.gif
Location Peelamedu, Tamil Nadu
Serving Coimbatore
Elevation 403.555 m
1,324 ft
1,324 ft403.555 m
Coordinates 11° 1' 48.84" N, 77° 2' 20.09" E
Runways
Designator Length Width Surface ROPS
5/23 2585 m8,480.971 ft
46 m150.919 ft
ASP yes/yes


METAR
Observation VOCB 190230Z 21008KT 4000 BR SCT010 SCT015 23/21 Q1008 NOSIG
Station Coimbatore / Peelamedu
Date/Time 19 July 2019 02:30:00
Wind direction 210°
Wind speed 08 kts
Lowest cloud amount scattered clouds
Temperature 23°C
Dew point 21°C
Humidity 88%
QNH 1008 hPa
Weather condition n/a

WX
Tag(s) Cumulonimbus
Tropical Revolving Storm

Coimbatore International Airport is located at Peelamedu, approximately 11 km5.94 nm
11,000 m
36,089.239 ft
from the central business district of Coimbatore, a large city in Tamil Nadu.

Climatology

Tropical Savanna climate (Köppen climate classification Aw) - monthly mean temperatures above 18°C64.4 °F
291.15 K
524.07 °R
, and a pronounced dry season. A Tropical Savanna climate has more pronounced dry seasons than a Tropical Monsoon climate.

Maps

Terrain

Loading map...

Airport Layout

Loading map...


Accidents & Serious Incidents at or in vicinity of VOCB

None on SKYbrary